createdAt,value
2023-03-11T00:00:30.664Z,59.7
2023-03-11T00:06:06.139Z,59.7
2023-03-11T00:11:41.876Z,59.8
2023-03-11T00:17:16.928Z,59.8
2023-03-11T00:22:52.162Z,59.8
2023-03-11T00:28:27.535Z,59.5
2023-03-11T00:34:03.023Z,59.6
2023-03-11T00:39:39.699Z,59.4
2023-03-11T00:45:17.712Z,59.6
2023-03-11T00:50:52.990Z,59.8
2023-03-11T00:56:28.348Z,59.9
2023-03-11T01:02:04.614Z,60.2
2023-03-11T01:07:41.293Z,60.3
2023-03-11T01:13:16.905Z,60.4
2023-03-11T01:18:53.244Z,60.6
2023-03-11T01:24:28.057Z,60.8
2023-03-11T01:30:03.046Z,60.8
2023-03-11T01:35:40.042Z,60.9
2023-03-11T01:41:15.628Z,60.8
2023-03-11T01:46:52.564Z,60.9
2023-03-11T01:52:31.734Z,60.9
2023-03-11T01:58:07.078Z,61
2023-03-11T02:03:42.261Z,61.1
2023-03-11T02:09:17.258Z,61.2
2023-03-11T02:14:52.858Z,61.1
2023-03-11T02:20:28.343Z,61.1
2023-03-11T02:26:03.901Z,61.2
2023-03-11T02:31:43.427Z,61
2023-03-11T02:37:19.721Z,61
2023-03-11T02:42:55.197Z,60.9
2023-03-11T02:48:30.282Z,61.1
2023-03-11T02:54:05.479Z,61.2
2023-03-11T02:59:41.031Z,61.3
2023-03-11T03:05:16.264Z,61.2
2023-03-11T03:10:51.556Z,61.4
2023-03-11T03:16:27.020Z,61.6
2023-03-11T03:22:02.569Z,61.7
2023-03-11T03:27:37.297Z,61.8
2023-03-11T03:33:13.954Z,62
2023-03-11T03:38:48.924Z,62.3
2023-03-11T03:44:29.920Z,62.4
2023-03-11T03:50:06.198Z,62.8
2023-03-11T03:55:41.391Z,63.1
2023-03-11T04:01:16.692Z,63.2
2023-03-11T04:06:52.223Z,63.4
2023-03-11T04:12:35.789Z,63.9
2023-03-11T04:18:11.909Z,64.1
2023-03-11T04:23:47.087Z,64.4
2023-03-11T04:29:22.504Z,64.6
2023-03-11T04:34:57.983Z,65
2023-03-11T04:41:17.384Z,65.3
2023-03-11T04:46:52.459Z,65.6
2023-03-11T04:52:28.021Z,66
2023-03-11T04:58:03.347Z,66.3
2023-03-11T05:03:38.512Z,66.6
2023-03-11T05:09:14.123Z,67.1
2023-03-11T05:14:50.340Z,67
2023-03-11T05:20:26.818Z,67.3
2023-03-11T05:26:02.116Z,67.6
2023-03-11T05:31:37.957Z,67.9
2023-03-11T05:37:13.530Z,68
2023-03-11T05:42:49.100Z,68.1
2023-03-11T05:48:24.234Z,68.3
2023-03-11T05:54:00.314Z,68.3
2023-03-11T05:59:36.051Z,68.6
2023-03-11T06:05:14.247Z,68.7
2023-03-11T06:10:50.719Z,68.9
2023-03-11T06:16:32.683Z,69.1
2023-03-11T06:22:09.236Z,69.3
2023-03-11T06:27:44.547Z,69.4
2023-03-11T06:33:19.458Z,69.5
2023-03-11T06:38:55.115Z,69.5
2023-03-11T06:44:30.171Z,71.5
2023-03-11T06:50:05.365Z,73.7
2023-03-11T06:55:42.426Z,74.3
2023-03-11T07:01:18.860Z,75.5
2023-03-11T07:06:54.548Z,75.9
2023-03-11T07:12:29.890Z,77
2023-03-11T07:18:06.692Z,76.8
2023-03-11T07:23:42.151Z,78.2
2023-03-11T07:29:26.202Z,77.9
2023-03-11T07:35:01.768Z,78
2023-03-11T07:40:38.169Z,78.2
2023-03-11T07:46:20.429Z,78.2
2023-03-11T07:51:56.716Z,79
2023-03-11T07:57:32.389Z,78.9
2023-03-11T08:03:08.017Z,78.8
2023-03-11T08:08:43.665Z,77.6
2023-03-11T08:14:19.007Z,77.8
2023-03-11T08:19:54.714Z,78.1
2023-03-11T08:25:29.764Z,79.1
2023-03-11T08:31:05.087Z,80.6
2023-03-11T08:36:42.982Z,81
2023-03-11T08:42:18.111Z,81.2
2023-03-11T08:47:53.297Z,81.5
2023-03-11T08:53:28.430Z,82.9
2023-03-11T08:59:03.962Z,83.3
2023-03-11T09:04:39.717Z,83.1
2023-03-11T09:10:15.153Z,84.7
2023-03-11T09:15:50.366Z,85.1
2023-03-11T09:21:27.250Z,85.5
2023-03-11T09:27:02.734Z,85
2023-03-11T09:32:37.993Z,84.8
2023-03-11T09:38:13.453Z,84.5
2023-03-11T09:43:48.786Z,84.9
2023-03-11T09:49:24.442Z,86.8
2023-03-11T09:54:59.830Z,87.5
2023-03-11T10:00:35.369Z,87.4
2023-03-11T10:06:10.330Z,86.2
2023-03-11T10:11:45.996Z,87.1
2023-03-11T10:17:21.251Z,85.9
2023-03-11T10:22:57.891Z,82.2
2023-03-11T10:28:32.720Z,82.3
2023-03-11T10:34:08.342Z,84.2
2023-03-11T10:39:43.165Z,86.7
2023-03-11T10:45:18.079Z,85.7
2023-03-11T10:50:53.920Z,86
2023-03-11T10:56:50.292Z,86.2
2023-03-11T11:02:23.044Z,86.1
2023-03-11T11:07:59.632Z,87.5
2023-03-11T11:13:36.511Z,87.3
2023-03-11T11:19:11.539Z,86
2023-03-11T11:24:47.433Z,85.3
2023-03-11T11:30:23.599Z,83.8
2023-03-11T11:35:58.856Z,83.5
2023-03-11T11:41:34.458Z,84.7
2023-03-11T11:47:10.621Z,82.8
2023-03-11T11:52:48.016Z,84.2
2023-03-11T11:58:23.410Z,83.9
2023-03-11T12:03:59.031Z,83.6
2023-03-11T12:09:36.869Z,86
2023-03-11T12:15:12.384Z,84.6
2023-03-11T12:20:48.086Z,83.2
2023-03-11T12:26:22.909Z,82.8
2023-03-11T12:31:59.018Z,83
2023-03-11T12:37:34.345Z,81.1
2023-03-11T12:43:09.814Z,81.3
2023-03-11T12:48:45.730Z,81.2
2023-03-11T12:54:42.739Z,81.6
2023-03-11T13:00:16.253Z,80.3
2023-03-11T13:05:51.938Z,80.1
2023-03-11T13:11:27.030Z,81
2023-03-11T13:17:02.615Z,81.8
2023-03-11T13:22:38.108Z,83.3
2023-03-11T13:28:16.418Z,81.8
2023-03-11T13:33:51.337Z,81.8
2023-03-11T13:39:27.288Z,82.1
2023-03-11T13:45:02.695Z,79.3
2023-03-11T13:50:38.252Z,76.5
2023-03-11T13:56:13.903Z,76.9
2023-03-11T14:01:49.019Z,78.4
2023-03-11T14:07:24.720Z,73.2
2023-03-11T14:13:04.117Z,75.2
2023-03-11T14:18:39.895Z,76
2023-03-11T14:24:15.967Z,75.9
2023-03-11T14:29:52.635Z,77.8
2023-03-11T14:35:27.990Z,80.2
2023-03-11T14:41:03.565Z,80.6
2023-03-11T14:46:45.497Z,81.3
2023-03-11T14:52:20.602Z,80.9
2023-03-11T14:57:56.414Z,82.3
2023-03-11T15:03:32.328Z,82.3
2023-03-11T15:09:08.658Z,84.4
2023-03-11T15:14:44.585Z,84.6
2023-03-11T15:20:20.204Z,84.7
2023-03-11T15:25:55.499Z,86
2023-03-11T15:31:30.474Z,86.6
2023-03-11T15:37:06.526Z,87
2023-03-11T15:42:50.200Z,87.4
2023-03-11T15:48:25.172Z,87.5
2023-03-11T15:54:00.201Z,86.8
2023-03-11T15:59:35.127Z,87.6
2023-03-11T16:05:10.787Z,88.1
2023-03-11T16:10:48.759Z,87.8
2023-03-11T16:16:23.957Z,88.7
2023-03-11T16:21:59.771Z,88.6
2023-03-11T16:27:35.374Z,88.7
2023-03-11T16:33:10.255Z,88.9
2023-03-11T16:38:45.603Z,89.3
2023-03-11T16:44:21.022Z,89.4
2023-03-11T16:49:56.841Z,89.5
2023-03-11T16:55:32.829Z,89.4
2023-03-11T17:01:08.186Z,89.5
2023-03-11T17:06:43.133Z,89.5
2023-03-11T17:12:18.702Z,90.4
2023-03-11T17:17:54.767Z,90.8
2023-03-11T17:23:29.608Z,91.5
2023-03-11T17:29:05.148Z,91
2023-03-11T17:34:40.476Z,91.6
2023-03-11T17:40:15.786Z,91.2
2023-03-11T17:45:51.547Z,91.4
2023-03-11T17:51:26.654Z,91.3
2023-03-11T17:57:02.539Z,90.9
2023-03-11T18:02:37.522Z,90.5
2023-03-11T18:08:12.853Z,91.6
2023-03-11T18:13:48.867Z,91.9
2023-03-11T18:19:25.565Z,89.7
2023-03-11T18:25:00.903Z,88.6
2023-03-11T18:30:36.426Z,87.9
2023-03-11T18:36:12.315Z,87.5
2023-03-11T18:41:48.975Z,88.1
2023-03-11T18:47:24.978Z,89.3
2023-03-11T18:53:01.378Z,90.2
2023-03-11T18:58:36.828Z,90.4
2023-03-11T19:04:20.043Z,90.6
2023-03-11T19:10:16.516Z,90.9
2023-03-11T19:15:52.730Z,91.2
2023-03-11T19:21:36.110Z,91.2
2023-03-11T19:27:11.340Z,91.3
2023-03-11T19:32:47.559Z,91.5
2023-03-11T19:38:23.216Z,91.6
2023-03-11T19:43:58.484Z,91.7
2023-03-11T19:49:34.220Z,91.6
2023-03-11T19:55:30.852Z,91.4
2023-03-11T20:01:04.561Z,91.4
2023-03-11T20:06:41.275Z,91.5
2023-03-11T20:12:17.002Z,91.8
2023-03-11T20:18:01.719Z,94.4
2023-03-11T20:23:37.720Z,94.2
2023-03-11T20:29:13.103Z,92
2023-03-11T20:34:49.088Z,94.6
2023-03-11T20:40:24.431Z,94.4
2023-03-11T20:45:59.514Z,92.4
2023-03-11T20:51:35.117Z,92.3
2023-03-11T20:57:13.315Z,91.8
2023-03-11T21:02:49.550Z,91.2
2023-03-11T21:08:28.023Z,90.7
2023-03-11T21:14:05.286Z,90.7
2023-03-11T21:19:41.385Z,91
2023-03-11T21:25:17.179Z,90.5
2023-03-11T21:30:53.539Z,89.3
2023-03-11T21:36:29.749Z,89.9
2023-03-11T21:42:11.237Z,90.3
2023-03-11T21:47:55.095Z,89.5
2023-03-11T21:53:53.031Z,88.2
2023-03-11T21:59:28.056Z,88
2023-03-11T22:05:03.927Z,87.6
2023-03-11T22:10:40.643Z,87.4
2023-03-11T22:16:16.710Z,87.1
2023-03-11T22:21:54.072Z,87
2023-03-11T22:27:29.676Z,86.8
2023-03-11T22:33:04.750Z,86.9
2023-03-11T22:38:45.494Z,86.7
2023-03-11T22:44:21.482Z,86.6
2023-03-11T22:49:56.874Z,86.5
2023-03-11T22:55:33.274Z,86.6
2023-03-11T23:01:08.003Z,86.4
2023-03-11T23:06:43.115Z,86.3
2023-03-11T23:12:18.232Z,86.3
2023-03-11T23:18:04.418Z,86.3
2023-03-11T23:23:39.329Z,86.3
2023-03-11T23:29:14.835Z,86.4
2023-03-11T23:34:50.604Z,86.4
2023-03-11T23:40:25.600Z,86.3
2023-03-11T23:46:01.283Z,86.3
2023-03-11T23:51:37.846Z,86.3
2023-03-11T23:57:12.803Z,86.3
